createdAt,value
2023-09-06T00:02:16.708Z,15.52
2023-09-06T00:05:19.942Z,15.55
2023-09-06T00:08:22.842Z,15.62
2023-09-06T00:11:26.713Z,15.71
2023-09-06T00:14:30.904Z,15.76
2023-09-06T00:17:38.850Z,15.64
2023-09-06T00:20:41.807Z,15.71
2023-09-06T00:23:45.007Z,15.75
2023-09-06T00:26:48.472Z,15.83
2023-09-06T00:29:51.468Z,15.86
2023-09-06T00:32:54.519Z,15.95
2023-09-06T00:35:59.476Z,15.73
2023-09-06T00:39:02.409Z,15.52
2023-09-06T00:42:06.196Z,15.40
2023-09-06T00:45:09.300Z,15.33
2023-09-06T00:48:27.932Z,15.38
2023-09-06T00:51:34.114Z,15.48
2023-09-06T00:54:40.890Z,15.59
2023-09-06T00:57:44.511Z,15.62
2023-09-06T01:00:50.392Z,15.56
2023-09-06T01:03:53.413Z,15.55
2023-09-06T01:06:59.973Z,15.39
2023-09-06T01:10:04.836Z,15.34
2023-09-06T01:13:08.039Z,15.31
2023-09-06T01:16:11.692Z,15.39
2023-09-06T01:19:16.495Z,15.42
2023-09-06T01:22:32.808Z,15.05
2023-09-06T01:25:36.227Z,15.04
2023-09-06T01:28:41.168Z,14.99
2023-09-06T01:31:44.516Z,15.13
2023-09-06T01:34:47.394Z,14.87
2023-09-06T01:37:51.896Z,14.81
2023-09-06T01:40:55.237Z,14.85
2023-09-06T01:43:58.303Z,14.98
2023-09-06T01:47:01.088Z,15.07
2023-09-06T01:50:05.842Z,15.02
2023-09-06T01:53:08.895Z,15.14
2023-09-06T01:56:12.026Z,15.04
2023-09-06T01:59:14.736Z,14.97
2023-09-06T02:02:18.796Z,14.90
2023-09-06T02:05:22.038Z,14.79
2023-09-06T02:08:24.893Z,14.84
2023-09-06T02:11:27.972Z,14.78
2023-09-06T02:14:30.654Z,14.83
2023-09-06T02:17:37.170Z,14.75
2023-09-06T02:20:40.556Z,14.78
2023-09-06T02:23:44.685Z,14.81
2023-09-06T02:26:48.247Z,14.76
2023-09-06T02:29:53.023Z,14.87
2023-09-06T02:32:57.031Z,14.65
2023-09-06T02:35:59.764Z,14.67
2023-09-06T02:39:03.124Z,14.54
2023-09-06T02:42:05.925Z,14.72
2023-09-06T02:45:13.433Z,14.68
2023-09-06T02:48:19.924Z,14.66
2023-09-06T02:51:30.464Z,14.58
2023-09-06T02:54:33.170Z,14.55
2023-09-06T02:57:36.387Z,14.61
2023-09-06T03:00:44.062Z,14.72
2023-09-06T03:03:53.172Z,14.56
2023-09-06T03:06:59.070Z,14.45
2023-09-06T03:10:03.057Z,14.22
2023-09-06T03:13:07.012Z,14.10
2023-09-06T03:16:14.882Z,14.17
2023-09-06T03:19:18.637Z,14.09
2023-09-06T03:22:27.392Z,14.17
2023-09-06T03:25:30.750Z,14.28
2023-09-06T03:28:35.151Z,14.37
2023-09-06T03:31:44.125Z,14.36
2023-09-06T03:34:47.473Z,14.42
2023-09-06T03:37:53.568Z,14.35
2023-09-06T03:40:56.923Z,14.17
2023-09-06T03:44:01.285Z,14.10
2023-09-06T03:47:07.094Z,14.06
2023-09-06T03:50:10.233Z,14.06
2023-09-06T03:53:14.755Z,14.13
2023-09-06T03:56:17.558Z,14.01
2023-09-06T03:59:20.907Z,13.96
2023-09-06T04:02:28.774Z,13.98
2023-09-06T04:05:33.913Z,14.01
2023-09-06T04:08:38.093Z,14.03
2023-09-06T04:11:42.331Z,13.92
2023-09-06T04:14:45.204Z,13.89
2023-09-06T04:17:55.624Z,13.81
2023-09-06T04:21:01.309Z,13.82
2023-09-06T04:24:05.666Z,13.67
2023-09-06T04:27:08.421Z,13.59
2023-09-06T04:30:12.268Z,13.64
2023-09-06T04:33:16.189Z,13.61
2023-09-06T04:36:20.403Z,13.54
2023-09-06T04:39:26.473Z,13.58
2023-09-06T04:42:30.029Z,13.57
2023-09-06T04:45:33.996Z,13.62
2023-09-06T04:48:37.876Z,13.71
2023-09-06T04:51:42.424Z,13.75
2023-09-06T04:54:46.451Z,13.81
2023-09-06T04:57:50.915Z,14.35
2023-09-06T05:00:54.159Z,14.88
2023-09-06T05:03:57.274Z,15.34
2023-09-06T05:07:00.657Z,15.76
2023-09-06T05:10:04.960Z,16.21
2023-09-06T05:13:09.857Z,16.67
2023-09-06T05:16:13.408Z,16.85
2023-09-06T05:19:16.900Z,17.38
2023-09-06T05:22:20.517Z,17.55
2023-09-06T05:25:24.548Z,17.86
2023-09-06T05:28:27.486Z,18.13
2023-09-06T05:31:31.523Z,18.32
2023-09-06T05:34:34.668Z,18.13
2023-09-06T05:37:41.707Z,17.83
2023-09-06T05:40:44.985Z,17.42
2023-09-06T05:43:49.381Z,17.14
2023-09-06T05:46:52.618Z,17.03
2023-09-06T05:49:59.377Z,16.92
2023-09-06T05:53:02.319Z,16.84
2023-09-06T05:56:06.244Z,16.79
2023-09-06T05:59:09.222Z,16.82
2023-09-06T06:02:13.421Z,16.81
2023-09-06T06:05:20.077Z,16.74
2023-09-06T06:08:23.044Z,16.68
2023-09-06T06:11:28.389Z,16.65
2023-09-06T06:14:31.911Z,16.74
2023-09-06T06:17:35.055Z,16.81
2023-09-06T06:20:44.134Z,16.89
2023-09-06T06:23:49.311Z,16.96
2023-09-06T06:26:52.549Z,17.04
2023-09-06T06:29:55.786Z,17.12
2023-09-06T06:33:01.765Z,17.22
2023-09-06T06:36:08.334Z,17.40
2023-09-06T06:39:11.799Z,17.50
2023-09-06T06:42:14.879Z,17.60
2023-09-06T06:45:19.415Z,17.77
2023-09-06T06:48:23.200Z,17.91
2023-09-06T06:51:27.124Z,18.08
2023-09-06T06:54:30.238Z,18.18
2023-09-06T06:57:34.913Z,18.29
2023-09-06T07:00:38.074Z,18.49
2023-09-06T07:03:42.185Z,19.48
2023-09-06T07:06:46.037Z,20.59
2023-09-06T07:09:48.928Z,21.52
2023-09-06T07:12:52.003Z,22.48
2023-09-06T07:15:54.886Z,22.99
2023-09-06T07:18:59.993Z,23.79
2023-09-06T07:22:03.692Z,24.12
2023-09-06T07:25:09.407Z,24.07
2023-09-06T07:28:12.069Z,24.74
2023-09-06T07:31:16.024Z,25.27
2023-09-06T07:34:19.059Z,25.85
2023-09-06T07:37:22.431Z,26.13
2023-09-06T07:40:25.204Z,26.53
2023-09-06T07:43:30.040Z,26.91
2023-09-06T07:46:33.650Z,27.09
2023-09-06T07:49:36.909Z,27.30
2023-09-06T07:52:39.775Z,27.50
2023-09-06T07:55:46.720Z,27.71
2023-09-06T07:58:49.586Z,28.40
2023-09-06T08:01:53.392Z,28.86
2023-09-06T08:04:56.621Z,29.02
2023-09-06T08:07:59.896Z,28.85
2023-09-06T08:11:03.074Z,29.08
2023-09-06T08:14:05.934Z,29.94
2023-09-06T08:17:09.832Z,29.74
2023-09-06T08:20:15.855Z,29.89
2023-09-06T08:23:19.151Z,29.98
2023-09-06T08:26:21.986Z,30.71
2023-09-06T08:29:25.672Z,30.75
2023-09-06T08:32:28.570Z,31.21
2023-09-06T08:35:31.998Z,31.22
2023-09-06T08:38:35.143Z,31.11
2023-09-06T08:41:39.587Z,30.82
2023-09-06T08:44:45.217Z,30.84
2023-09-06T08:47:50.369Z,30.68
2023-09-06T08:50:56.354Z,30.58
2023-09-06T08:54:00.932Z,31.34
2023-09-06T08:57:04.357Z,31.06
2023-09-06T09:00:11.358Z,31.90
2023-09-06T09:03:14.464Z,31.81
2023-09-06T09:06:17.638Z,31.82
2023-09-06T09:09:21.508Z,31.71
2023-09-06T09:12:26.332Z,32.44
2023-09-06T09:15:33.767Z,32.70
2023-09-06T09:18:42.071Z,32.33
2023-09-06T09:21:45.072Z,32.18
2023-09-06T09:24:48.333Z,32.14
2023-09-06T09:27:59.783Z,32.23
2023-09-06T09:31:03.800Z,32.03
2023-09-06T09:34:06.743Z,31.98
2023-09-06T09:37:10.905Z,32.64
2023-09-06T09:40:31.619Z,32.47
2023-09-06T09:43:41.128Z,32.35
2023-09-06T09:46:45.356Z,32.97
2023-09-06T09:49:49.086Z,32.19
2023-09-06T09:52:53.744Z,32.86
2023-09-06T09:55:57.666Z,32.91
2023-09-06T09:59:04.403Z,32.67
2023-09-06T10:02:08.623Z,33.23
2023-09-06T10:05:18.228Z,33.18
2023-09-06T10:08:23.096Z,33.56
2023-09-06T10:11:28.160Z,34.16
2023-09-06T10:14:33.694Z,34.16
2023-09-06T10:17:37.075Z,33.87
2023-09-06T10:20:42.015Z,34.14
2023-09-06T10:23:48.368Z,34.39
2023-09-06T10:26:55.008Z,35.08
2023-09-06T10:30:04.577Z,34.29
2023-09-06T10:33:09.832Z,35.14
2023-09-06T10:36:17.618Z,33.68
2023-09-06T10:39:22.725Z,34.18
2023-09-06T10:42:25.785Z,34.78
2023-09-06T10:45:28.904Z,34.68
2023-09-06T10:48:32.158Z,34.43
2023-09-06T10:51:35.007Z,34.62
2023-09-06T10:54:46.295Z,34.60
2023-09-06T10:57:53.275Z,34.64
2023-09-06T11:01:14.878Z,35.02
2023-09-06T11:04:27.591Z,34.65
2023-09-06T11:07:50.051Z,35.28
2023-09-06T11:10:56.178Z,34.95
2023-09-06T11:14:02.684Z,34.87
2023-09-06T11:17:05.456Z,34.68
2023-09-06T11:20:13.791Z,35.04
2023-09-06T11:23:17.840Z,34.84
2023-09-06T11:26:21.241Z,35.43
2023-09-06T11:29:27.780Z,34.39
2023-09-06T11:32:33.623Z,35.61
2023-09-06T11:35:42.028Z,36.02
2023-09-06T11:38:46.528Z,35.71
2023-09-06T11:41:50.075Z,35.06
2023-09-06T11:44:55.400Z,35.16
2023-09-06T11:48:01.176Z,34.76
2023-09-06T11:51:10.182Z,34.84
2023-09-06T11:54:13.651Z,34.89
2023-09-06T11:57:32.167Z,34.76
2023-09-06T12:00:44.581Z,34.62
2023-09-06T12:03:49.081Z,34.47
2023-09-06T12:06:53.871Z,33.96
2023-09-06T12:10:06.598Z,34.20
2023-09-06T12:13:09.752Z,34.71
2023-09-06T12:16:13.341Z,33.50
2023-09-06T12:19:18.965Z,33.38
2023-09-06T12:22:22.832Z,33.87
2023-09-06T12:25:25.672Z,34.51
2023-09-06T12:28:30.799Z,34.30
2023-09-06T12:31:33.868Z,34.22
2023-09-06T12:34:37.076Z,35.22
2023-09-06T12:37:41.244Z,35.15
2023-09-06T12:40:44.846Z,34.65
2023-09-06T12:43:47.961Z,34.77
2023-09-06T12:46:51.217Z,34.43
2023-09-06T12:49:55.092Z,34.63
2023-09-06T12:52:58.436Z,34.46
2023-09-06T12:56:01.262Z,33.67
2023-09-06T12:59:06.039Z,34.43
2023-09-06T13:02:09.230Z,33.77
2023-09-06T13:05:12.536Z,34.06
2023-09-06T13:08:16.913Z,33.34
2023-09-06T13:11:23.617Z,33.20
2023-09-06T13:14:27.003Z,33.67
2023-09-06T13:17:30.595Z,33.68
2023-09-06T13:20:34.845Z,33.90
2023-09-06T13:23:37.897Z,34.12
2023-09-06T13:26:41.802Z,34.33
2023-09-06T13:29:45.254Z,34.15
2023-09-06T13:32:48.280Z,33.88
2023-09-06T13:35:51.671Z,33.82
2023-09-06T13:38:54.593Z,33.31
2023-09-06T13:41:57.796Z,33.30
2023-09-06T13:45:00.788Z,33.44
2023-09-06T13:48:04.379Z,33.28
2023-09-06T13:51:07.292Z,33.04
2023-09-06T13:54:10.643Z,33.36
2023-09-06T13:57:13.416Z,33.22
2023-09-06T14:00:17.810Z,32.45
2023-09-06T14:03:21.429Z,32.28
2023-09-06T14:06:24.758Z,32.60
2023-09-06T14:09:27.837Z,32.40
2023-09-06T14:12:30.837Z,32.67
2023-09-06T14:15:37.007Z,32.26
2023-09-06T14:22:00.092Z,32.03
2023-09-06T14:25:02.684Z,32.19
2023-09-06T14:28:05.947Z,32.14
2023-09-06T14:31:12.291Z,31.68
2023-09-06T14:34:16.869Z,31.48
2023-09-06T14:37:19.765Z,31.69
2023-09-06T14:40:22.778Z,31.76
2023-09-06T14:43:26.006Z,31.84
2023-09-06T14:46:29.103Z,31.01
2023-09-06T14:49:31.840Z,30.64
2023-09-06T14:52:34.950Z,30.91
2023-09-06T14:55:37.934Z,30.89
2023-09-06T14:58:42.642Z,30.72
2023-09-06T15:01:46.840Z,30.44
2023-09-06T15:04:51.204Z,30.22
2023-09-06T15:07:54.940Z,29.39
2023-09-06T15:11:00.547Z,28.97
2023-09-06T15:14:06.391Z,28.92
2023-09-06T15:17:09.884Z,28.67
2023-09-06T15:20:13.540Z,28.22
2023-09-06T15:23:17.445Z,28.00
2023-09-06T15:26:22.571Z,27.81
2023-09-06T15:29:26.099Z,27.70
2023-09-06T15:32:29.244Z,27.42
2023-09-06T15:35:32.871Z,27.38
2023-09-06T15:38:39.974Z,27.22
2023-09-06T15:41:43.300Z,27.19
2023-09-06T15:44:46.333Z,27.15
2023-09-06T15:47:51.412Z,27.01
2023-09-06T15:50:54.603Z,26.95
2023-09-06T15:53:58.173Z,26.83
2023-09-06T15:57:01.251Z,26.76
2023-09-06T16:00:24.362Z,26.60
2023-09-06T16:03:34.154Z,26.51
2023-09-06T16:06:37.831Z,26.43
2023-09-06T16:09:43.014Z,26.33
2023-09-06T16:12:49.175Z,26.28
2023-09-06T16:15:58.054Z,26.21
2023-09-06T16:19:04.022Z,26.08
2023-09-06T16:22:08.506Z,25.94
2023-09-06T16:25:12.684Z,25.90
2023-09-06T16:28:21.103Z,25.87
2023-09-06T16:31:26.684Z,25.76
2023-09-06T16:34:31.405Z,25.71
2023-09-06T16:37:36.233Z,25.60
2023-09-06T16:40:43.772Z,25.50
2023-09-06T16:43:47.482Z,25.35
2023-09-06T16:46:52.537Z,25.22
2023-09-06T16:49:56.032Z,25.10
2023-09-06T16:52:59.387Z,25.03
2023-09-06T16:56:04.588Z,24.92
2023-09-06T16:59:10.385Z,24.80
2023-09-06T17:02:13.680Z,24.66
2023-09-06T17:05:17.470Z,24.44
2023-09-06T17:08:20.530Z,24.28
2023-09-06T17:11:24.481Z,24.14
2023-09-06T17:14:27.793Z,23.92
2023-09-06T17:17:31.991Z,23.75
2023-09-06T17:20:36.766Z,23.57
2023-09-06T17:24:00.678Z,23.39
2023-09-06T17:27:06.065Z,23.24
2023-09-06T17:30:11.619Z,23.06
2023-09-06T17:33:16.772Z,23.00
2023-09-06T17:36:20.681Z,22.81
2023-09-06T17:39:24.788Z,22.68
2023-09-06T17:42:32.892Z,22.60
2023-09-06T17:45:36.217Z,22.56
2023-09-06T17:48:40.678Z,22.45
2023-09-06T17:51:46.088Z,22.38
2023-09-06T17:54:50.727Z,22.30
2023-09-06T17:57:55.114Z,22.26
2023-09-06T18:01:00.333Z,22.24
2023-09-06T18:04:11.828Z,22.37
2023-09-06T18:07:18.408Z,22.33
2023-09-06T18:10:26.656Z,22.28
2023-09-06T18:13:31.526Z,22.14
2023-09-06T18:16:43.877Z,22.09
2023-09-06T18:19:48.507Z,21.93
2023-09-06T18:22:52.468Z,21.85
2023-09-06T18:25:57.864Z,21.84
2023-09-06T18:29:03.278Z,21.74
2023-09-06T18:32:09.949Z,21.60
2023-09-06T18:35:18.742Z,21.52
2023-09-06T18:38:23.604Z,21.29
2023-09-06T18:41:29.454Z,21.14
2023-09-06T18:44:32.948Z,21.27
2023-09-06T18:47:51.542Z,21.25
2023-09-06T18:50:55.929Z,21.04
2023-09-06T18:54:02.941Z,20.98
2023-09-06T18:57:12.220Z,20.94
2023-09-06T19:00:23.623Z,21.01
2023-09-06T19:03:31.629Z,20.69
2023-09-06T19:06:36.099Z,20.52
2023-09-06T19:09:41.156Z,20.41
2023-09-06T19:12:47.621Z,20.17
2023-09-06T19:15:53.537Z,20.06
2023-09-06T19:19:00.073Z,19.97
2023-09-06T19:22:05.625Z,19.76
2023-09-06T19:25:11.174Z,19.71
2023-09-06T19:28:15.208Z,19.75
2023-09-06T19:31:22.526Z,19.77
2023-09-06T19:34:33.650Z,19.83
2023-09-06T19:37:39.693Z,19.90
2023-09-06T19:40:44.309Z,19.99
2023-09-06T19:43:50.081Z,19.73
2023-09-06T19:46:57.352Z,19.73
2023-09-06T19:50:01.113Z,19.73
2023-09-06T19:53:07.820Z,19.67
2023-09-06T19:56:18.387Z,19.63
2023-09-06T19:59:22.970Z,19.34
2023-09-06T20:02:29.242Z,19.26
2023-09-06T20:05:34.958Z,19.12
2023-09-06T20:08:39.328Z,19.15
2023-09-06T20:11:44.522Z,19.02
2023-09-06T20:14:50.040Z,19.15
2023-09-06T20:17:57.680Z,19.18
2023-09-06T20:21:07.308Z,19.15
2023-09-06T20:24:14.202Z,19.18
2023-09-06T20:27:18.270Z,18.88
2023-09-06T20:30:25.430Z,18.97
2023-09-06T20:33:29.192Z,18.83
2023-09-06T20:36:34.747Z,18.89
2023-09-06T20:39:38.253Z,18.81
2023-09-06T20:42:42.188Z,18.72
2023-09-06T20:45:46.510Z,18.52
2023-09-06T20:48:50.360Z,18.50
2023-09-06T20:51:53.847Z,18.38
2023-09-06T20:54:57.555Z,18.42
2023-09-06T20:58:00.912Z,18.43
2023-09-06T21:01:20.761Z,18.45
2023-09-06T21:04:24.438Z,18.51
2023-09-06T21:07:27.639Z,18.31
2023-09-06T21:10:31.197Z,18.15
2023-09-06T21:13:34.513Z,18.30
2023-09-06T21:16:37.328Z,18.19
2023-09-06T21:19:40.726Z,18.27
2023-09-06T21:22:43.538Z,18.07
2023-09-06T21:25:47.138Z,18.07
2023-09-06T21:28:49.843Z,18.14
2023-09-06T21:31:52.945Z,18.18
2023-09-06T21:34:56.067Z,18.19
2023-09-06T21:37:59.102Z,18.18
2023-09-06T21:41:02.757Z,18.12
2023-09-06T21:44:05.988Z,18.04
2023-09-06T21:47:08.884Z,17.97
2023-09-06T21:50:12.086Z,17.92
2023-09-06T21:53:14.868Z,17.88
2023-09-06T21:56:18.140Z,17.81
2023-09-06T21:59:22.085Z,17.90
2023-09-06T22:02:24.626Z,17.80
2023-09-06T22:05:45.998Z,17.86
2023-09-06T22:09:07.330Z,18.00
2023-09-06T22:12:28.345Z,18.00
2023-09-06T22:15:31.832Z,17.82
2023-09-06T22:18:34.524Z,17.72
2023-09-06T22:21:37.574Z,17.63
2023-09-06T22:24:40.396Z,17.67
2023-09-06T22:27:44.264Z,17.64
2023-09-06T22:30:47.402Z,17.67
2023-09-06T22:33:50.786Z,17.65
2023-09-06T22:36:53.642Z,17.79
2023-09-06T22:39:56.705Z,17.58
2023-09-06T22:42:59.510Z,17.48
2023-09-06T22:46:02.826Z,17.34
2023-09-06T22:49:05.757Z,17.42
2023-09-06T22:52:10.690Z,17.40
2023-09-06T22:55:13.547Z,17.40
2023-09-06T22:58:16.617Z,17.37
2023-09-06T23:01:19.554Z,17.14
2023-09-06T23:04:22.769Z,17.05
2023-09-06T23:07:27.122Z,17.07
2023-09-06T23:10:30.633Z,17.06
2023-09-06T23:13:33.502Z,16.94
2023-09-06T23:16:37.083Z,16.86
2023-09-06T23:19:49.796Z,16.98
2023-09-06T23:22:56.100Z,17.08
2023-09-06T23:26:00.125Z,17.08
2023-09-06T23:29:08.342Z,17.05
2023-09-06T23:32:15.829Z,17.10
2023-09-06T23:35:22.015Z,16.91
2023-09-06T23:38:26.345Z,16.92
2023-09-06T23:41:29.634Z,16.94
2023-09-06T23:44:32.515Z,16.88
2023-09-06T23:47:36.421Z,16.84
2023-09-06T23:50:39.244Z,16.63
2023-09-06T23:53:42.366Z,16.75
2023-09-06T23:56:45.053Z,16.50
2023-09-06T23:59:48.263Z,16.45
